Los Ranchos del Rio, New Mexico
Current Conditions -  °F | °C
As of 8:51 PM on Tuesday 25 Nov 2014 (Local Time) from KELP Reporting Station
Clear Clear  
Wind Chill: 45°   Ceiling: Unl
Heat Index: 47°   Visibility: 10mi
Dew Point:   Wind: 5mph
Humidity: 19%   Direction: 230°SW
Pressure: 30.27"   Gusts: NA
Location:  31.8707°N, 106.67°W
Report Text: KELP 260351Z 23004KT 10SM CLR 08/M14 A3027 RMK AO2 SLP233 T00831144
Loading
Personal Weather Stations






























Interactive Weather Map New forecast layout! Learn more

10-Day Weather Forecast

Advertisements
Track Severe Weather on mobile